createdAt,value
2017-06-20T00:00:51.719Z,11.07
2017-06-20T00:03:19.239Z,10.70
2017-06-20T00:05:48.226Z,11.57
2017-06-20T00:08:15.739Z,11.00
2017-06-20T00:10:43.256Z,11.50
2017-06-20T00:13:10.823Z,11.30
2017-06-20T00:15:38.339Z,11.07
2017-06-20T00:18:05.898Z,10.80
2017-06-20T00:20:33.507Z,12.47
2017-06-20T00:23:01.027Z,11.43
2017-06-20T00:25:28.543Z,13.40
2017-06-20T00:27:56.173Z,10.93
2017-06-20T00:30:23.703Z,12.60
2017-06-20T00:32:51.215Z,10.77
2017-06-20T00:35:19.053Z,11.70
2017-06-20T00:37:46.569Z,11.53
2017-06-20T00:40:14.088Z,11.50
2017-06-20T00:42:42.418Z,10.40
2017-06-20T00:45:09.959Z,10.80
2017-06-20T00:47:37.527Z,13.00
2017-06-20T00:50:05.399Z,11.57
2017-06-20T00:52:32.911Z,10.80
2017-06-20T00:55:00.423Z,11.70
2017-06-20T00:57:27.987Z,10.50
2017-06-20T00:59:55.587Z,10.90
2017-06-20T01:02:23.094Z,10.83
2017-06-20T01:04:50.656Z,10.40
2017-06-20T01:07:18.167Z,11.60
2017-06-20T01:09:45.681Z,12.07
2017-06-20T01:12:14.138Z,11.47
2017-06-20T01:14:41.810Z,11.27
2017-06-20T01:17:09.345Z,12.10
2017-06-20T01:19:36.927Z,11.57
2017-06-20T01:22:04.447Z,12.27
2017-06-20T01:24:31.954Z,10.93
2017-06-20T01:26:59.503Z,12.47
2017-06-20T01:29:27.011Z,10.53
2017-06-20T01:31:54.519Z,11.50
2017-06-20T01:34:22.382Z,11.57
2017-06-20T01:36:49.900Z,12.00
2017-06-20T01:39:17.403Z,11.83
2017-06-20T01:41:44.967Z,12.50
2017-06-20T01:44:12.477Z,11.00
2017-06-20T01:46:39.979Z,10.60
2017-06-20T01:49:07.787Z,11.90
2017-06-20T01:51:35.319Z,11.80
2017-06-20T01:54:02.842Z,13.20
2017-06-20T01:56:30.475Z,11.27
2017-06-20T01:58:57.997Z,13.17
2017-06-20T02:01:25.507Z,10.90
2017-06-20T02:03:53.081Z,11.30
2017-06-20T02:06:20.687Z,10.60
2017-06-20T02:08:48.827Z,11.33
2017-06-20T02:11:16.639Z,11.43
2017-06-20T02:13:44.245Z,11.10
2017-06-20T02:16:11.804Z,11.57
2017-06-20T02:18:39.363Z,12.13
2017-06-20T02:21:06.872Z,11.40
2017-06-20T02:23:34.380Z,11.27
2017-06-20T02:26:01.995Z,11.07
2017-06-20T02:28:29.502Z,11.73
2017-06-20T02:30:57.007Z,11.70
2017-06-20T02:33:24.823Z,12.00
2017-06-20T02:35:52.336Z,11.57
2017-06-20T02:38:19.844Z,10.73
2017-06-20T02:40:47.659Z,11.57
2017-06-20T02:43:15.171Z,11.27
2017-06-20T02:45:42.675Z,11.80
2017-06-20T02:48:10.676Z,12.10
2017-06-20T02:50:38.195Z,11.70
2017-06-20T02:53:05.708Z,12.80
2017-06-20T02:55:33.279Z,12.10
2017-06-20T02:58:00.783Z,12.37
2017-06-20T03:00:28.872Z,13.20
2017-06-20T03:02:56.444Z,10.97
2017-06-20T03:05:23.947Z,11.23
2017-06-20T03:07:51.498Z,12.53
2017-06-20T03:10:19.095Z,11.43
2017-06-20T03:12:46.603Z,11.57
2017-06-20T03:15:14.111Z,11.70
2017-06-20T03:17:41.798Z,13.80
2017-06-20T03:20:09.340Z,11.20
2017-06-20T03:22:36.843Z,11.87
2017-06-20T03:25:04.423Z,12.87
2017-06-20T03:27:31.979Z,11.90
2017-06-20T03:29:59.514Z,12.97
2017-06-20T03:32:27.112Z,13.40
2017-06-20T03:34:54.624Z,13.57
2017-06-20T03:37:22.140Z,11.20
2017-06-20T03:39:49.697Z,10.90
2017-06-20T03:42:17.259Z,10.87
2017-06-20T03:44:44.763Z,11.40
2017-06-20T03:47:12.591Z,12.77
2017-06-20T03:49:40.099Z,13.40
2017-06-20T03:52:07.612Z,13.60
2017-06-20T03:54:35.180Z,11.90
2017-06-20T03:57:02.685Z,10.80
2017-06-20T03:59:30.231Z,11.77
2017-06-20T04:01:57.804Z,10.37
2017-06-20T04:04:25.899Z,12.33
2017-06-20T04:06:53.475Z,11.80
2017-06-20T04:09:21.031Z,12.03
2017-06-20T04:11:48.535Z,10.57
2017-06-20T04:14:16.055Z,11.57
2017-06-20T04:16:43.600Z,11.07
2017-06-20T04:19:11.211Z,11.37
2017-06-20T04:21:44.255Z,11.43
2017-06-20T04:24:11.831Z,10.80
2017-06-20T04:26:39.335Z,12.23
2017-06-20T04:29:06.891Z,11.07
2017-06-20T04:31:34.399Z,10.77
2017-06-20T04:34:01.986Z,10.37
2017-06-20T04:36:29.543Z,10.73
2017-06-20T04:38:57.063Z,9.53
2017-06-20T04:41:24.976Z,10.97
2017-06-20T04:43:52.483Z,10.43
2017-06-20T04:46:20.130Z,9.83
2017-06-20T04:48:48.035Z,10.10
2017-06-20T04:51:15.543Z,10.77
2017-06-20T04:53:43.047Z,10.93
2017-06-20T04:56:10.906Z,10.40
2017-06-20T04:58:38.474Z,9.23
2017-06-20T05:01:05.983Z,10.27
2017-06-20T05:03:33.794Z,10.10
2017-06-20T05:06:01.340Z,9.43
2017-06-20T05:08:28.879Z,9.57
2017-06-20T05:10:56.445Z,9.43
2017-06-20T05:13:23.944Z,9.20
2017-06-20T05:15:51.447Z,10.17
2017-06-20T05:18:19.247Z,11.40
2017-06-20T05:20:46.771Z,9.17
2017-06-20T05:23:14.275Z,10.87
2017-06-20T05:25:41.897Z,11.97
2017-06-20T05:28:10.231Z,9.87
2017-06-20T05:30:37.738Z,10.27
2017-06-20T05:33:05.319Z,10.77
2017-06-20T05:35:32.827Z,10.07
2017-06-20T05:38:00.334Z,10.17
2017-06-20T05:40:27.935Z,10.67
2017-06-20T05:42:55.442Z,11.43
2017-06-20T05:45:23.767Z,10.63
2017-06-20T05:47:51.459Z,10.40
2017-06-20T05:50:19.546Z,11.07
2017-06-20T05:52:47.119Z,9.33
2017-06-20T05:55:14.676Z,10.13
2017-06-20T05:57:42.920Z,9.67
2017-06-20T06:00:10.436Z,10.10
2017-06-20T06:02:37.939Z,10.60
2017-06-20T06:05:05.823Z,10.20
2017-06-20T06:07:33.345Z,9.27
2017-06-20T06:10:00.851Z,10.23
2017-06-20T06:12:28.652Z,9.50
2017-06-20T06:14:56.162Z,8.60
2017-06-20T06:17:23.663Z,9.23
2017-06-20T06:19:51.287Z,10.37
2017-06-20T06:22:18.798Z,8.40
2017-06-20T06:24:46.327Z,10.17
2017-06-20T06:27:14.467Z,9.43
2017-06-20T06:29:41.978Z,8.90
2017-06-20T06:32:09.679Z,8.77
2017-06-20T06:34:38.254Z,10.57
2017-06-20T06:37:05.763Z,11.40
2017-06-20T06:39:33.374Z,9.13
2017-06-20T06:42:00.935Z,8.53
2017-06-20T06:44:28.438Z,9.67
2017-06-20T06:46:56.514Z,9.90
2017-06-20T06:49:24.094Z,8.87
2017-06-20T06:51:51.599Z,8.67
2017-06-20T06:54:19.294Z,9.27
2017-06-20T06:56:47.284Z,9.53
2017-06-20T06:59:14.799Z,9.37
2017-06-20T07:01:42.307Z,8.70
2017-06-20T07:04:10.422Z,8.80
2017-06-20T07:06:39.347Z,8.70
2017-06-20T07:09:06.856Z,9.03
2017-06-20T07:11:34.457Z,8.70
2017-06-20T07:14:02.371Z,8.83
2017-06-20T07:16:29.891Z,8.73
2017-06-20T07:18:57.395Z,9.40
2017-06-20T07:21:24.923Z,9.20
2017-06-20T07:23:52.466Z,9.37
2017-06-20T07:26:19.998Z,9.53
2017-06-20T07:28:47.903Z,8.83
2017-06-20T07:31:15.408Z,8.83
2017-06-20T07:33:43.699Z,8.73
2017-06-20T07:36:11.217Z,8.10
2017-06-20T07:38:38.759Z,8.87
2017-06-20T07:41:06.576Z,9.23
2017-06-20T07:43:34.085Z,8.70
2017-06-20T07:46:01.647Z,8.70
2017-06-20T07:48:29.631Z,9.83
2017-06-20T07:50:57.219Z,9.90
2017-06-20T07:53:24.731Z,8.83
2017-06-20T07:55:52.374Z,8.97
2017-06-20T07:58:19.882Z,9.00
2017-06-20T08:00:47.395Z,10.47
2017-06-20T08:03:14.951Z,10.10
2017-06-20T08:05:42.465Z,9.10
2017-06-20T08:08:10.041Z,8.60
2017-06-20T08:10:37.592Z,9.50
2017-06-20T08:13:05.099Z,9.83
2017-06-20T08:15:32.609Z,9.47
2017-06-20T08:18:00.491Z,9.10
2017-06-20T08:20:27.990Z,9.60
2017-06-20T08:22:55.527Z,8.50
2017-06-20T08:25:23.154Z,9.40
2017-06-20T08:27:50.655Z,9.67
2017-06-20T08:30:18.174Z,9.10
2017-06-20T08:32:45.742Z,9.70
2017-06-20T08:35:13.252Z,9.97
2017-06-20T08:37:40.827Z,9.03
2017-06-20T08:40:08.380Z,10.20
2017-06-20T08:42:35.899Z,10.07
2017-06-20T08:45:03.402Z,9.67
2017-06-20T08:47:31.029Z,8.87
2017-06-20T08:49:58.563Z,9.10
2017-06-20T08:52:26.064Z,8.77
2017-06-20T08:54:53.615Z,8.23
2017-06-20T08:57:21.119Z,8.33
2017-06-20T08:59:48.648Z,8.70
2017-06-20T09:02:16.227Z,8.30
2017-06-20T09:04:43.725Z,7.87
2017-06-20T09:07:11.227Z,8.13
2017-06-20T09:09:38.791Z,8.00
2017-06-20T09:12:06.335Z,7.67
2017-06-20T09:14:33.871Z,8.57
2017-06-20T09:17:01.424Z,7.87
2017-06-20T09:19:28.933Z,9.30
2017-06-20T09:21:56.430Z,7.60
2017-06-20T09:24:24.256Z,8.50
2017-06-20T09:26:51.795Z,8.60
2017-06-20T09:29:19.299Z,8.60
2017-06-20T09:31:46.874Z,8.77
2017-06-20T09:34:14.395Z,8.50
2017-06-20T09:36:42.147Z,9.70
2017-06-20T09:39:09.750Z,8.43
2017-06-20T09:41:37.250Z,8.53
2017-06-20T09:44:04.758Z,7.97
2017-06-20T09:46:32.330Z,7.67
2017-06-20T09:48:59.831Z,7.70
2017-06-20T09:51:27.397Z,8.50
2017-06-20T09:53:55.009Z,8.63
2017-06-20T09:56:22.515Z,8.47
2017-06-20T09:58:50.022Z,9.33
2017-06-20T10:01:17.575Z,9.00
2017-06-20T10:03:45.075Z,9.40
2017-06-20T10:06:12.571Z,8.90
2017-06-20T10:08:40.133Z,10.17
2017-06-20T10:11:07.655Z,9.40
2017-06-20T10:13:35.171Z,9.73
2017-06-20T10:16:02.839Z,10.37
2017-06-20T10:18:30.351Z,10.30
2017-06-20T10:20:57.855Z,9.83
2017-06-20T10:23:25.966Z,8.90
2017-06-20T10:25:53.593Z,8.67
2017-06-20T10:28:21.107Z,9.40
2017-06-20T10:30:48.899Z,9.50
2017-06-20T10:33:16.404Z,8.50
2017-06-20T10:35:43.909Z,8.37
2017-06-20T10:38:11.724Z,9.83
2017-06-20T10:40:39.231Z,9.10
2017-06-20T10:43:06.766Z,10.30
2017-06-20T10:45:34.343Z,11.50
2017-06-20T10:48:01.850Z,10.57
2017-06-20T10:50:29.357Z,10.40
2017-06-20T10:52:57.187Z,9.90
2017-06-20T10:55:24.697Z,10.13
2017-06-20T10:57:52.455Z,10.07
2017-06-20T11:00:20.343Z,9.97
2017-06-20T11:02:47.859Z,10.03
2017-06-20T11:05:15.372Z,10.50
2017-06-20T11:07:43.388Z,10.90
2017-06-20T11:10:11.003Z,9.27
2017-06-20T11:12:38.507Z,10.60
2017-06-20T11:15:06.344Z,11.17
2017-06-20T11:17:33.872Z,11.20
2017-06-20T11:20:01.380Z,11.10
2017-06-20T11:22:28.952Z,10.90
2017-06-20T11:24:56.499Z,10.30
2017-06-20T11:27:24.019Z,10.67
2017-06-20T11:29:51.824Z,10.17
2017-06-20T11:32:19.327Z,9.73
2017-06-20T11:34:46.831Z,9.83
2017-06-20T11:37:14.403Z,10.70
2017-06-20T11:39:41.909Z,11.43
2017-06-20T11:42:09.419Z,10.60
2017-06-20T11:44:37.231Z,9.70
2017-06-20T11:47:04.832Z,9.37
2017-06-20T11:49:33.559Z,9.67
2017-06-20T11:52:01.128Z,10.40
2017-06-20T11:54:28.668Z,10.20
2017-06-20T11:56:56.180Z,10.90
2017-06-20T11:59:23.769Z,10.10
2017-06-20T12:01:51.272Z,9.73
2017-06-20T12:04:18.783Z,10.70
2017-06-20T12:06:46.440Z,10.20
2017-06-20T12:09:13.944Z,9.30
2017-06-20T12:11:41.487Z,10.10
2017-06-20T12:14:09.048Z,10.23
2017-06-20T12:16:36.558Z,10.60
2017-06-20T12:19:04.084Z,10.40
2017-06-20T12:21:31.699Z,10.37
2017-06-20T12:23:59.208Z,10.47
2017-06-20T12:26:26.722Z,10.83
2017-06-20T12:28:54.571Z,10.53
2017-06-20T12:31:22.075Z,11.23
2017-06-20T12:33:49.639Z,11.40
2017-06-20T12:36:17.263Z,10.63
2017-06-20T12:38:44.773Z,11.23
2017-06-20T12:41:12.278Z,11.97
2017-06-20T12:43:40.148Z,10.23
2017-06-20T12:46:07.771Z,9.83
2017-06-20T12:48:35.368Z,10.07
2017-06-20T12:51:02.935Z,11.40
2017-06-20T12:53:30.470Z,11.00
2017-06-20T12:55:58.508Z,10.97
2017-06-20T12:58:26.095Z,10.40
2017-06-20T13:00:53.603Z,10.37
2017-06-20T13:03:21.186Z,11.73
2017-06-20T13:05:48.704Z,11.20
2017-06-20T13:08:16.214Z,10.63
2017-06-20T13:10:43.808Z,10.60
2017-06-20T13:13:11.323Z,11.73
2017-06-20T13:15:38.852Z,10.63
2017-06-20T13:18:06.509Z,10.10
2017-06-20T13:20:34.095Z,10.67
2017-06-20T13:23:01.612Z,9.30
2017-06-20T13:25:29.501Z,10.57
2017-06-20T13:27:57.495Z,10.73
2017-06-20T13:30:25.027Z,10.40
2017-06-20T13:32:52.893Z,11.93
2017-06-20T13:35:20.417Z,11.00
2017-06-20T13:37:47.923Z,11.33
2017-06-20T13:40:15.504Z,11.13
2017-06-20T13:42:43.018Z,10.73
2017-06-20T13:45:10.528Z,11.67
2017-06-20T13:47:38.130Z,11.73
2017-06-20T13:50:05.640Z,11.20
2017-06-20T13:52:33.159Z,11.10
2017-06-20T13:55:00.998Z,11.40
2017-06-20T13:57:28.505Z,11.17
2017-06-20T13:59:56.019Z,11.60
2017-06-20T14:02:23.626Z,10.80
2017-06-20T14:04:51.139Z,11.90
2017-06-20T14:07:18.652Z,10.67
2017-06-20T14:09:46.211Z,12.07
2017-06-20T14:12:13.719Z,10.80
2017-06-20T14:14:41.471Z,11.70
2017-06-20T14:17:09.028Z,10.97
2017-06-20T14:19:36.549Z,11.10
2017-06-20T14:22:04.091Z,11.10
2017-06-20T14:24:32.073Z,11.30
2017-06-20T14:26:59.604Z,11.30
2017-06-20T14:29:27.103Z,11.40
2017-06-20T14:31:54.676Z,11.53
2017-06-20T14:34:22.250Z,12.33
2017-06-20T14:36:50.195Z,11.47
2017-06-20T14:39:17.711Z,11.37
2017-06-20T14:41:45.283Z,10.57
2017-06-20T14:44:13.175Z,10.93
2017-06-20T14:46:40.837Z,12.30
2017-06-20T14:49:08.344Z,12.50
2017-06-20T14:51:35.867Z,12.67
2017-06-20T14:54:03.552Z,11.63
2017-06-20T14:56:31.107Z,11.17
2017-06-20T14:58:58.659Z,12.83
2017-06-20T15:01:26.220Z,12.03
2017-06-20T15:03:53.755Z,10.57
2017-06-20T15:06:21.271Z,11.63
2017-06-20T15:08:48.858Z,11.80
2017-06-20T15:11:16.367Z,12.10
2017-06-20T15:13:43.880Z,12.77
2017-06-20T15:16:11.431Z,12.60
2017-06-20T15:18:38.939Z,13.30
2017-06-20T15:21:06.546Z,12.27
2017-06-20T15:23:34.119Z,11.70
2017-06-20T15:26:01.630Z,12.70
2017-06-20T15:28:29.255Z,11.83
2017-06-20T15:30:56.823Z,12.10
2017-06-20T15:33:24.364Z,11.80
2017-06-20T15:35:51.884Z,12.60
2017-06-20T15:38:19.527Z,12.70
2017-06-20T15:40:47.042Z,10.90
2017-06-20T15:43:14.556Z,11.57
2017-06-20T15:45:42.379Z,12.00
2017-06-20T15:48:10.468Z,11.33
2017-06-20T15:50:38.039Z,13.00
2017-06-20T15:53:05.725Z,11.37
2017-06-20T15:55:33.366Z,12.00
2017-06-20T15:58:00.979Z,11.33
2017-06-20T16:00:28.576Z,12.37
2017-06-20T16:02:56.156Z,13.03
2017-06-20T16:05:23.658Z,12.07
2017-06-20T16:07:51.243Z,11.87
2017-06-20T16:10:19.238Z,11.43
2017-06-20T16:12:46.803Z,12.33
2017-06-20T16:15:14.387Z,12.57
2017-06-20T16:17:41.967Z,12.00
2017-06-20T16:20:09.587Z,11.80
2017-06-20T16:22:37.214Z,10.33
2017-06-20T16:25:04.772Z,10.80
2017-06-20T16:27:32.287Z,10.40
2017-06-20T16:29:59.978Z,12.53
2017-06-20T16:32:27.491Z,11.70
2017-06-20T16:34:55.005Z,11.80
2017-06-20T16:37:22.571Z,11.50
2017-06-20T16:39:50.092Z,11.10
2017-06-20T16:42:17.702Z,10.60
2017-06-20T16:44:45.364Z,10.80
2017-06-20T16:47:12.888Z,10.30
2017-06-20T16:49:40.404Z,10.43
2017-06-20T16:52:08.343Z,11.37
2017-06-20T16:54:35.847Z,10.40
2017-06-20T16:57:03.354Z,11.17
2017-06-20T16:59:31.287Z,10.37
2017-06-20T17:01:58.827Z,9.63
2017-06-20T17:04:26.398Z,10.20
2017-06-20T17:06:53.967Z,10.70
2017-06-20T17:09:21.471Z,10.87
2017-06-20T17:11:48.995Z,10.93
2017-06-20T17:14:16.580Z,10.00
2017-06-20T17:16:44.133Z,10.17
2017-06-20T17:19:11.668Z,9.60
2017-06-20T17:21:39.220Z,9.47
2017-06-20T17:24:06.719Z,8.90
2017-06-20T17:26:34.219Z,8.77
2017-06-20T17:29:01.824Z,8.97
2017-06-20T17:31:29.329Z,9.97
2017-06-20T17:33:56.832Z,10.03
2017-06-20T17:36:24.416Z,10.37
2017-06-20T17:38:51.920Z,10.77
2017-06-20T17:41:19.431Z,10.00
2017-06-20T17:43:47.233Z,10.83
2017-06-20T17:46:14.849Z,10.40
2017-06-20T17:48:42.363Z,11.03
2017-06-20T17:51:09.920Z,12.27
2017-06-20T17:53:37.436Z,10.63
2017-06-20T17:56:04.943Z,11.17
2017-06-20T17:58:32.551Z,11.00
2017-06-20T18:01:00.091Z,11.30
2017-06-20T18:03:27.603Z,11.90
2017-06-20T18:05:55.176Z,10.47
2017-06-20T18:08:22.715Z,11.00
2017-06-20T18:10:50.263Z,11.00
2017-06-20T18:13:17.819Z,11.53
2017-06-20T18:15:45.336Z,11.70
2017-06-20T18:18:12.919Z,11.90
2017-06-20T18:20:40.505Z,11.67
2017-06-20T18:23:08.019Z,11.47
2017-06-20T18:25:35.527Z,11.57
2017-06-20T18:28:03.279Z,12.10
2017-06-20T18:30:30.791Z,12.20
2017-06-20T18:32:58.306Z,12.50
2017-06-20T18:35:26.133Z,13.53
2017-06-20T18:37:53.642Z,12.13
2017-06-20T18:40:21.179Z,11.77
2017-06-20T18:42:49.019Z,11.63
2017-06-20T18:45:16.539Z,12.40
2017-06-20T18:47:44.055Z,12.97
2017-06-20T18:50:11.743Z,12.13
2017-06-20T18:52:39.252Z,12.73
2017-06-20T18:55:06.824Z,12.03
2017-06-20T18:57:34.410Z,12.37
2017-06-20T19:00:01.983Z,12.80
2017-06-20T19:02:29.508Z,13.40
2017-06-20T19:04:57.316Z,12.30
2017-06-20T19:07:24.857Z,11.53
2017-06-20T19:09:52.363Z,20.47
2017-06-20T19:12:19.975Z,13.43
2017-06-20T19:14:47.548Z,11.40
2017-06-20T19:17:15.086Z,13.17
2017-06-20T19:19:42.599Z,12.90
2017-06-20T19:22:10.188Z,13.20
2017-06-20T19:24:38.244Z,13.47
2017-06-20T19:27:06.115Z,12.30
2017-06-20T19:29:33.944Z,13.73
2017-06-20T19:32:01.528Z,11.93
2017-06-20T19:34:29.047Z,12.37
2017-06-20T19:36:57.660Z,13.63
2017-06-20T19:39:25.285Z,12.90
2017-06-20T19:41:52.839Z,13.23
2017-06-20T19:44:20.593Z,12.70
2017-06-20T19:46:48.202Z,13.03
2017-06-20T19:49:15.782Z,12.70
2017-06-20T19:51:43.423Z,14.47
2017-06-20T19:54:11.319Z,13.10
2017-06-20T19:56:38.840Z,14.13
2017-06-20T19:59:06.594Z,12.20
2017-06-20T20:01:34.118Z,14.60
2017-06-20T20:04:01.658Z,15.60
2017-06-20T20:06:29.551Z,13.63
2017-06-20T20:08:57.228Z,15.80
2017-06-20T20:11:25.219Z,13.37
2017-06-20T20:13:53.094Z,15.70
2017-06-20T20:16:20.924Z,14.00
2017-06-20T20:18:48.527Z,14.70
2017-06-20T20:21:16.075Z,15.10
2017-06-20T20:23:44.033Z,16.20
2017-06-20T20:26:12.060Z,15.63
2017-06-20T20:28:39.633Z,13.87
2017-06-20T20:31:08.106Z,15.30
2017-06-20T20:33:35.671Z,14.60
2017-06-20T20:36:03.184Z,13.33
2017-06-20T20:38:31.307Z,15.43
2017-06-20T20:40:58.907Z,14.00
2017-06-20T20:43:26.553Z,13.80
2017-06-20T20:45:54.118Z,13.47
2017-06-20T20:48:22.023Z,14.67
2017-06-20T20:50:50.163Z,14.50
2017-06-20T20:53:17.687Z,14.77
2017-06-20T20:55:45.298Z,14.97
2017-06-20T20:58:12.816Z,15.40
2017-06-20T21:00:40.376Z,16.90
2017-06-20T21:03:08.230Z,15.80
2017-06-20T21:05:35.788Z,14.60
2017-06-20T21:08:03.367Z,15.43
2017-06-20T21:10:30.879Z,15.17
2017-06-20T21:12:58.472Z,15.60
2017-06-20T21:15:26.099Z,15.40
2017-06-20T21:17:53.611Z,15.00
2017-06-20T21:20:21.183Z,16.27
2017-06-20T21:22:48.769Z,16.53
2017-06-20T21:25:16.282Z,16.60
2017-06-20T21:27:44.193Z,18.13
2017-06-20T21:30:11.704Z,18.40
2017-06-20T21:32:39.283Z,17.57
2017-06-20T21:35:06.919Z,17.30
2017-06-20T21:37:34.436Z,20.30
2017-06-20T21:40:01.975Z,20.50
2017-06-20T21:42:29.623Z,17.10
2017-06-20T21:44:57.128Z,19.30
2017-06-20T21:47:24.643Z,17.50
2017-06-20T21:49:52.200Z,17.50
2017-06-20T21:52:19.711Z,17.07
2017-06-20T21:54:47.215Z,18.80
2017-06-20T21:57:15.245Z,16.80
2017-06-20T21:59:43.170Z,17.10
2017-06-20T22:02:10.969Z,17.20
2017-06-20T22:04:38.625Z,19.00
2017-06-20T22:07:06.132Z,16.87
2017-06-20T22:09:34.118Z,17.30
2017-06-20T22:12:02.184Z,16.90
2017-06-20T22:14:30.275Z,17.27
2017-06-20T22:16:57.783Z,18.53
2017-06-20T22:19:26.451Z,17.07
2017-06-20T22:21:53.959Z,19.17
2017-06-20T22:24:21.484Z,17.30
2017-06-20T22:26:49.035Z,17.93
2017-06-20T22:29:16.543Z,18.67
2017-06-20T22:31:44.066Z,16.70
2017-06-20T22:34:11.964Z,18.63
2017-06-20T22:36:39.467Z,17.33
2017-06-20T22:39:06.978Z,17.13
2017-06-20T22:41:35.167Z,18.40
2017-06-20T22:44:02.683Z,19.90
2017-06-20T22:46:30.187Z,19.77
2017-06-20T22:48:57.880Z,16.37
2017-06-20T22:51:25.431Z,17.80
2017-06-20T22:53:52.976Z,18.90
2017-06-20T22:56:20.527Z,18.30
2017-06-20T22:58:48.035Z,18.23
2017-06-20T23:01:15.675Z,18.47
2017-06-20T23:03:43.231Z,17.77
2017-06-20T23:06:10.744Z,19.30
2017-06-20T23:08:38.315Z,19.30
2017-06-20T23:11:05.923Z,18.67
2017-06-20T23:13:33.432Z,20.70
2017-06-20T23:16:00.987Z,20.13
2017-06-20T23:18:28.590Z,19.80
2017-06-20T23:20:56.123Z,18.93
2017-06-20T23:23:23.631Z,18.03
2017-06-20T23:25:51.185Z,19.70
2017-06-20T23:28:18.696Z,18.13
2017-06-20T23:30:46.204Z,20.00
2017-06-20T23:33:13.760Z,19.30
2017-06-20T23:35:41.308Z,18.30
2017-06-20T23:38:08.815Z,21.67
2017-06-20T23:40:36.348Z,19.70
2017-06-20T23:43:03.899Z,18.70
2017-06-20T23:45:31.502Z,21.27
2017-06-20T23:47:59.291Z,18.87
2017-06-20T23:50:26.831Z,21.00
2017-06-20T23:52:54.351Z,21.20
2017-06-20T23:55:21.908Z,19.97
2017-06-20T23:57:49.419Z,21.73
